Time;durP1;ratioP1;P1;durP2;ratioP2;P2;SDS_P1;SDS_P2;PMS_P1;PMS_P2;Temp;Humidity;BMP_temperature;BMP_pressure;BME280_temperature;BME280_humidity;BME280_pressure;Samples;Min_cycle;Max_cycle;Signal;HPM_P1;HPM_P2
2023/08/08 00:00:54;;;;;;;1.60;1.30;;;;;;;17.09;100.00;98980.50;5108413;28;20626;-57
2023/08/08 00:03:21;;;;;;;2.80;1.50;;;;;;;17.09;100.00;98972.78;5108104;28;20232;-57
2023/08/08 00:05:50;;;;;;;3.57;1.40;;;;;;;16.99;100.00;98975.47;5108546;28;20217;-56
2023/08/08 00:08:17;;;;;;;1.70;1.43;;;;;;;16.83;100.00;98986.53;5108008;28;20209;-56
2023/08/08 00:10:43;;;;;;;1.73;1.33;;;;;;;16.67;100.00;98983.84;5107966;28;20205;-56
2023/08/08 00:13:10;;;;;;;1.93;1.60;;;;;;;16.62;100.00;98986.06;5108277;28;20221;-56
2023/08/08 00:15:37;;;;;;;2.40;1.63;;;;;;;16.66;100.00;98992.53;5108067;28;20194;-56
2023/08/08 00:18:05;;;;;;;2.77;1.57;;;;;;;16.59;100.00;98992.31;5107824;28;20701;-56
2023/08/08 00:20:31;;;;;;;2.27;1.67;;;;;;;16.57;100.00;98977.94;5107961;28;20205;-56
2023/08/08 00:23:00;;;;;;;2.80;1.77;;;;;;;16.61;100.00;98961.19;5108129;28;20232;-57
2023/08/08 00:25:26;;;;;;;2.00;1.60;;;;;;;16.63;100.00;98961.84;5107816;28;20209;-56
2023/08/08 00:27:53;;;;;;;1.97;1.57;;;;;;;16.57;100.00;98977.94;5107907;28;20204;-56
2023/08/08 00:30:20;;;;;;;2.13;1.50;;;;;;;16.44;100.00;98997.22;5107781;28;20195;-56
2023/08/08 00:32:47;;;;;;;2.90;1.90;;;;;;;16.40;100.00;99003.63;5107947;28;20225;-56
2023/08/08 00:35:14;;;;;;;2.10;1.80;;;;;;;16.28;100.00;98999.69;5107813;28;20668;-56
2023/08/08 00:37:41;;;;;;;2.73;1.60;;;;;;;16.22;100.00;98995.13;5107396;28;20202;-56
2023/08/08 00:40:10;;;;;;;2.10;1.60;;;;;;;16.18;100.00;99006.69;5107661;28;20196;-56
2023/08/08 00:42:36;;;;;;;2.33;1.83;;;;;;;16.25;100.00;99010.28;5107765;28;20235;-56
2023/08/08 00:45:04;;;;;;;2.63;1.70;;;;;;;16.20;100.00;99000.44;5107662;28;20610;-56
2023/08/08 00:47:32;;;;;;;2.33;1.53;;;;;;;16.19;100.00;99010.88;5107623;28;20751;-56
2023/08/08 00:50:00;;;;;;;3.20;1.97;;;;;;;16.20;100.00;99015.91;5107885;28;20205;-56
2023/08/08 00:52:27;;;;;;;4.43;1.93;;;;;;;16.21;100.00;99027.03;5108149;28;20205;-56
2023/08/08 00:54:54;;;;;;;3.60;2.00;;;;;;;16.22;100.00;99026.06;5107607;28;20208;-56
2023/08/08 00:57:23;;;;;;;3.20;1.90;;;;;;;16.27;100.00;99023.88;5109058;28;20201;-56
2023/08/08 00:59:49;;;;;;;2.23;1.87;;;;;;;16.27;100.00;99023.88;5111162;28;20512;-56
2023/08/08 01:02:16;;;;;;;2.90;1.60;;;;;;;16.25;100.00;99025.78;5110980;28;20211;-56
2023/08/08 01:04:43;;;;;;;3.20;1.73;;;;;;;16.35;100.00;99021.34;5111134;28;20224;-56
2023/08/08 01:07:22;;;;;;;5.13;1.80;;;;;;;16.24;100.00;99035.28;5110936;28;20201;-56
2023/08/08 01:09:55;;;;;;;3.00;1.87;;;;;;;16.19;100.00;99032.34;5111342;27;20214;-56
2023/08/08 01:12:25;;;;;;;2.90;1.73;;;;;;;16.12;100.00;99049.38;5111337;28;20189;-56
2023/08/08 01:14:52;;;;;;;2.40;1.63;;;;;;;16.17;100.00;99048.91;5111176;28;20323;-56
2023/08/08 01:17:20;;;;;;;2.17;1.70;;;;;;;16.16;100.00;99042.94;5110658;28;20217;-56
2023/08/08 01:19:48;;;;;;;1.70;1.50;;;;;;;16.18;100.00;99035.06;5111098;28;20201;-56
2023/08/08 01:22:23;;;;;;;1.97;1.60;;;;;;;16.15;100.00;99030.22;5111074;28;20204;-56
2023/08/08 01:24:52;;;;;;;1.93;1.50;;;;;;;16.13;100.00;99027.78;5110984;28;20664;-56
2023/08/08 01:27:20;;;;;;;2.50;1.80;;;;;;;16.13;100.00;99026.97;5110751;28;20205;-56
2023/08/08 01:29:47;;;;;;;3.47;1.83;;;;;;;16.10;100.00;99016.94;5110700;28;20220;-56
2023/08/08 01:32:14;;;;;;;1.90;1.50;;;;;;;16.18;100.00;99014.44;5110737;28;20212;-56
2023/08/08 01:34:40;;;;;;;2.40;1.80;;;;;;;16.21;100.00;99008.97;5110591;28;20201;-56
2023/08/08 01:37:14;;;;;;;2.73;2.00;;;;;;;16.17;100.00;99018.75;5110472;28;20310;-56
2023/08/08 01:39:43;;;;;;;1.90;1.47;;;;;;;16.27;100.00;99014.34;5110616;28;20193;-56
2023/08/08 01:42:13;;;;;;;1.93;1.43;;;;;;;16.27;100.00;99008.38;5110232;28;20206;-56
2023/08/08 01:44:42;;;;;;;2.60;1.60;;;;;;;16.25;100.00;99005.94;5110641;28;20212;-56
2023/08/08 01:47:09;;;;;;;2.40;1.90;;;;;;;16.26;100.00;98993.84;5110314;28;20202;-57
2023/08/08 01:49:36;;;;;;;2.17;1.60;;;;;;;16.33;100.00;98997.47;5110336;28;20212;-56
2023/08/08 01:52:03;;;;;;;3.33;1.60;;;;;;;16.27;100.00;99010.97;5110210;28;20192;-56
2023/08/08 01:54:30;;;;;;;3.60;1.80;;;;;;;16.27;100.00;99013.53;5110099;28;20212;-56
2023/08/08 01:56:57;;;;;;;3.03;1.80;;;;;;;16.36;100.00;99002.31;5110129;28;20198;-56
2023/08/08 01:59:25;;;;;;;3.00;1.57;;;;;;;16.45;100.00;99001.41;5110328;28;20256;-56
2023/08/08 02:01:52;;;;;;;1.83;1.40;;;;;;;16.48;100.00;99013.22;5110154;28;20285;-56
2023/08/08 02:04:19;;;;;;;2.23;1.50;;;;;;;16.56;100.00;99012.47;5110008;28;20896;-55
2023/08/08 02:06:46;;;;;;;6.07;1.70;;;;;;;16.59;100.00;99022.50;5110457;28;20208;-56
2023/08/08 02:09:14;;;;;;;1.97;1.60;;;;;;;16.58;100.00;99026.00;5109967;28;20208;-56
2023/08/08 02:11:41;;;;;;;2.10;1.67;;;;;;;16.55;100.00;99022.00;5110053;28;20575;-56
2023/08/08 02:14:08;;;;;;;2.07;1.67;;;;;;;16.57;100.00;99014.09;5109691;28;20208;-56
2023/08/08 02:16:36;;;;;;;2.30;1.60;;;;;;;16.46;100.00;99018.53;5109742;28;20205;-56
2023/08/08 02:19:03;;;;;;;2.37;1.60;;;;;;;16.42;100.00;99019.78;5109601;28;20201;-56
2023/08/08 02:21:30;;;;;;;2.10;1.50;;;;;;;16.36;100.00;99002.31;5109742;28;20209;-56
2023/08/08 02:23:57;;;;;;;5.63;1.70;;;;;;;16.37;100.00;99006.50;5109759;28;20232;-56
2023/08/08 02:26:24;;;;;;;2.53;1.60;;;;;;;16.41;100.00;99010.44;5109797;28;20221;-57
2023/08/08 02:28:50;;;;;;;2.20;1.77;;;;;;;16.39;100.00;99007.19;5109944;28;20198;-56
2023/08/08 02:31:20;;;;;;;2.33;1.50;;;;;;;16.43;100.00;98998.16;5109304;28;20206;-56
2023/08/08 02:33:50;;;;;;;3.57;1.60;;;;;;;16.42;100.00;99006.88;5109468;28;20212;-56
2023/08/08 02:36:17;;;;;;;1.97;1.47;;;;;;;16.49;100.00;99007.91;5109193;28;20643;-56
2023/08/08 02:38:44;;;;;;;2.17;1.50;;;;;;;16.56;100.00;99013.28;5109108;28;20197;-56
2023/08/08 02:41:10;;;;;;;2.30;1.70;;;;;;;16.54;100.00;99025.50;5109177;28;20208;-56
2023/08/08 02:43:37;;;;;;;2.40;1.60;;;;;;;16.53;100.00;99019.53;5109573;28;20232;-56
2023/08/08 02:46:04;;;;;;;2.07;1.77;;;;;;;16.45;100.00;99027.22;5109149;28;20686;-55
2023/08/08 02:48:31;;;;;;;1.63;1.37;;;;;;;16.48;100.00;99021.75;5108796;27;20221;-56
2023/08/08 02:50:59;;;;;;;2.87;1.73;;;;;;;16.40;100.00;99024.28;5108989;28;20262;-56
2023/08/08 02:53:26;;;;;;;5.73;1.70;;;;;;;16.38;100.00;99025.41;5109305;28;20197;-56
2023/08/08 02:55:53;;;;;;;2.17;1.70;;;;;;;16.35;100.00;99039.41;5109067;28;20223;-56
2023/08/08 02:58:20;;;;;;;2.00;1.80;;;;;;;16.25;100.00;99030.94;5109215;28;20201;-56
2023/08/08 03:00:47;;;;;;;3.93;1.67;;;;;;;16.17;100.00;99041.19;5109111;28;20218;-56
2023/08/08 03:03:14;;;;;;;2.17;1.60;;;;;;;16.13;100.00;99042.44;5109009;28;20620;-56
2023/08/08 03:05:41;;;;;;;2.53;1.87;;;;;;;16.10;100.00;99063.38;5108664;28;20297;-56
2023/08/08 03:08:09;;;;;;;2.00;1.70;;;;;;;16.03;100.00;99058.00;5108637;28;20198;-56
2023/08/08 03:10:36;;;;;;;2.50;1.80;;;;;;;16.12;100.00;99051.94;5108945;28;20651;-56
2023/08/08 03:13:03;;;;;;;2.17;1.63;;;;;;;16.17;100.00;99064.38;5108816;28;20204;-56
2023/08/08 03:15:29;;;;;;;2.67;1.70;;;;;;;16.23;100.00;99069.78;5108774;28;20197;-56
2023/08/08 03:17:56;;;;;;;4.97;1.90;;;;;;;16.21;100.00;99081.22;5108475;28;20204;-57
2023/08/08 03:20:23;;;;;;;5.00;1.80;;;;;;;16.25;100.00;99078.16;5108335;28;20209;-56
2023/08/08 03:22:50;;;;;;;2.53;1.90;;;;;;;16.27;100.00;99080.63;5108498;28;20198;-56
2023/08/08 03:25:18;;;;;;;2.40;1.93;;;;;;;16.20;100.00;99082.16;5108306;28;20207;-56
2023/08/08 03:27:45;;;;;;;2.40;1.77;;;;;;;16.13;100.00;99081.94;5108549;28;20980;-56
2023/08/08 03:30:13;;;;;;;2.70;2.07;;;;;;;16.12;100.00;99087.25;5108175;28;20202;-56
2023/08/08 03:32:40;;;;;;;2.73;2.00;;;;;;;16.07;100.00;99085.91;5108432;28;20213;-56
2023/08/08 03:35:09;;;;;;;2.20;1.80;;;;;;;16.11;100.00;99085.63;5108152;28;20208;-56
2023/08/08 03:37:36;;;;;;;2.80;1.83;;;;;;;16.06;100.00;99089.44;5108374;28;20205;-56
2023/08/08 03:40:03;;;;;;;3.50;2.23;;;;;;;15.97;100.00;99087.75;5108081;28;20193;-56
2023/08/08 03:42:31;;;;;;;3.27;2.17;;;;;;;16.01;100.00;99083.91;5108250;28;20288;-56
2023/08/08 03:44:58;;;;;;;2.03;1.80;;;;;;;16.04;100.00;99078.47;5108046;28;20236;-56
2023/08/08 03:47:25;;;;;;;3.40;2.23;;;;;;;16.13;100.00;99089.66;5108303;28;20547;-55
2023/08/08 03:49:54;;;;;;;3.00;2.17;;;;;;;16.10;100.00;99091.75;5108674;28;20201;-56
2023/08/08 03:52:21;;;;;;;2.57;2.07;;;;;;;16.03;100.00;99094.09;5108599;28;20333;-56
2023/08/08 03:54:48;;;;;;;4.50;2.10;;;;;;;15.97;100.00;99094.66;5108127;28;20205;-56
2023/08/08 03:57:15;;;;;;;2.03;1.63;;;;;;;16.03;100.00;99094.91;5108290;28;20482;-56
2023/08/08 03:59:43;;;;;;;2.73;2.10;;;;;;;16.05;100.00;99087.81;5107411;28;20189;-56
2023/08/08 04:02:10;;;;;;;2.20;1.90;;;;;;;16.04;100.00;99081.03;5106837;28;20224;-57
2023/08/08 04:04:38;;;;;;;2.83;2.10;;;;;;;16.04;100.00;99081.03;5107781;28;20229;-55
2023/08/08 04:07:05;;;;;;;2.90;2.30;;;;;;;16.05;100.00;99077.50;5108149;28;20233;-56
2023/08/08 04:09:32;;;;;;;3.20;2.37;;;;;;;16.06;100.00;99084.28;5107953;28;20198;-56
2023/08/08 04:11:59;;;;;;;2.80;2.10;;;;;;;16.02;100.00;99092.47;5107855;28;20207;-56
2023/08/08 04:14:26;;;;;;;2.40;2.10;;;;;;;16.04;100.00;99095.72;5108167;28;20196;-56
2023/08/08 04:16:54;;;;;;;2.83;2.20;;;;;;;16.06;100.00;99102.34;5108039;28;20204;-56
2023/08/08 04:19:21;;;;;;;4.07;2.33;;;;;;;16.09;100.00;99113.34;5108099;28;20209;-56
2023/08/08 04:21:48;;;;;;;6.00;2.50;;;;;;;16.18;100.00;99117.63;5107980;28;20211;-55
2023/08/08 04:24:15;;;;;;;4.47;2.50;;;;;;;16.19;100.00;99116.66;5108365;28;20234;-56
2023/08/08 04:26:42;;;;;;;5.83;2.10;;;;;;;16.30;100.00;99111.28;5108447;28;20193;-56
2023/08/08 04:29:09;;;;;;;2.93;2.00;;;;;;;16.36;100.00;99115.84;5107795;28;20689;-56
2023/08/08 04:31:35;;;;;;;2.67;2.13;;;;;;;16.37;100.00;99109.72;5108039;28;20202;-56
2023/08/08 04:34:04;;;;;;;3.67;2.17;;;;;;;16.35;100.00;99114.25;5111798;28;20219;-55
2023/08/08 04:36:30;;;;;;;3.53;2.20;;;;;;;16.41;100.00;99107.69;5111994;28;20600;-56
2023/08/08 04:38:57;;;;;;;3.37;2.10;;;;;;;16.40;100.00;99112.00;5111764;28;20205;-56
2023/08/08 04:41:24;;;;;;;4.57;2.33;;;;;;;16.36;100.00;99138.28;5111837;28;20197;-56
2023/08/08 04:43:51;;;;;;;2.83;2.20;;;;;;;16.30;100.00;99137.91;5111887;28;20229;-56
2023/08/08 04:46:18;;;;;;;2.90;2.30;;;;;;;16.34;100.00;99128.09;5111669;28;20207;-56
2023/08/08 04:48:45;;;;;;;3.33;2.20;;;;;;;16.44;100.00;99128.84;5111467;28;20201;-56
2023/08/08 04:51:13;;;;;;;3.23;2.40;;;;;;;16.42;100.00;99129.94;5111482;28;20201;-56
2023/08/08 04:53:40;;;;;;;3.43;2.10;;;;;;;16.38;100.00;99149.25;5111496;28;20200;-56
2023/08/08 04:56:07;;;;;;;3.10;2.20;;;;;;;16.37;100.00;99153.59;5111066;28;20675;-56
2023/08/08 04:58:33;;;;;;;3.53;2.40;;;;;;;16.25;100.00;99144.44;5111469;28;20205;-56
2023/08/08 05:01:00;;;;;;;2.60;2.07;;;;;;;16.25;100.00;99134.13;5111196;28;20205;-56
2023/08/08 05:03:27;;;;;;;2.90;2.10;;;;;;;16.25;100.00;99119.44;5111618;28;20228;-56
2023/08/08 05:05:54;;;;;;;2.57;2.10;;;;;;;16.21;100.00;99122.50;5111325;28;20197;-56
2023/08/08 05:08:22;;;;;;;2.80;2.43;;;;;;;16.23;100.00;99118.81;5111347;28;20216;-57
2023/08/08 05:10:49;;;;;;;3.20;2.23;;;;;;;16.19;100.00;99126.97;5111262;28;20200;-56
2023/08/08 05:13:16;;;;;;;3.27;2.40;;;;;;;16.13;100.00;99136.09;5111376;28;20570;-57
2023/08/08 05:15:43;;;;;;;2.93;2.23;;;;;;;16.20;100.00;99126.00;5110848;28;20205;-56
2023/08/08 05:18:09;;;;;;;2.80;2.03;;;;;;;16.19;100.00;99125.19;5110985;28;20204;-56
2023/08/08 05:20:36;;;;;;;3.13;2.30;;;;;;;16.16;100.00;99125.50;5111275;28;20200;-57
2023/08/08 05:23:03;;;;;;;5.60;2.10;;;;;;;16.14;100.00;99136.91;5110815;28;20201;-56
2023/08/08 05:25:31;;;;;;;3.33;2.40;;;;;;;16.13;100.00;99145.63;5111021;28;20232;-56
2023/08/08 05:27:58;;;;;;;3.10;2.20;;;;;;;16.11;100.00;99137.19;5110717;28;20193;-56
2023/08/08 05:30:25;;;;;;;3.00;1.90;;;;;;;16.06;100.00;99124.75;5110820;28;20208;-56
2023/08/08 05:32:52;;;;;;;2.47;1.90;;;;;;;15.96;100.00;99145.41;5110813;28;20193;-56
2023/08/08 05:35:19;;;;;;;2.67;1.97;;;;;;;15.98;100.00;99137.56;5110724;28;20197;-56
2023/08/08 05:37:46;;;;;;;3.00;2.00;;;;;;;15.90;100.00;99156.31;5110541;28;20610;-56
2023/08/08 05:40:13;;;;;;;2.90;2.37;;;;;;;15.98;100.00;99164.16;5110264;28;20198;-56
2023/08/08 05:42:41;;;;;;;2.57;1.87;;;;;;;15.95;100.00;99186.84;5109778;28;20216;-56
2023/08/08 05:45:09;;;;;;;4.17;1.77;;;;;;;15.89;100.00;99175.31;5110446;28;20252;-56
2023/08/08 05:47:36;;;;;;;2.60;1.83;;;;;;;15.83;100.00;99175.91;5110562;28;20228;-56
2023/08/08 05:50:03;;;;;;;4.10;2.00;;;;;;;15.75;100.00;99168.06;5110356;28;20203;-56
2023/08/08 05:52:30;;;;;;;2.67;2.03;;;;;;;15.70;100.00;99181.34;5110426;28;20201;-56
2023/08/08 05:54:59;;;;;;;2.67;2.10;;;;;;;15.82;100.00;99202.63;5110183;28;20201;-56
2023/08/08 05:57:26;;;;;;;3.10;2.07;;;;;;;15.83;100.00;99206.84;5110311;28;20276;-56
2023/08/08 05:59:54;;;;;;;2.63;2.20;;;;;;;15.90;100.00;99192.41;5110019;28;20194;-55
2023/08/08 06:02:21;;;;;;;3.17;2.30;;;;;;;15.86;100.00;99198.81;5110112;28;20630;-56
2023/08/08 06:04:48;;;;;;;3.07;2.33;;;;;;;15.89;100.00;99206.25;5109940;28;20241;-56
2023/08/08 06:07:15;;;;;;;2.83;2.40;;;;;;;15.83;100.00;99209.41;5110200;28;20197;-56
2023/08/08 06:09:42;;;;;;;2.57;2.10;;;;;;;15.86;100.00;99211.72;5109849;28;20700;-55
2023/08/08 06:12:09;;;;;;;5.77;2.07;;;;;;;15.92;100.00;99215.50;5109857;28;20289;-56
2023/08/08 06:14:36;;;;;;;3.57;2.30;;;;;;;15.91;100.00;99209.53;5109807;28;20203;-56
2023/08/08 06:17:05;;;;;;;3.43;2.37;;;;;;;15.97;100.00;99208.94;5109758;28;20199;-56
2023/08/08 06:19:32;;;;;;;2.47;2.03;;;;;;;15.98;100.00;99209.75;5109755;28;20193;-56
2023/08/08 06:21:59;;;;;;;2.70;2.30;;;;;;;16.00;100.00;99213.81;5109594;28;20197;-56
2023/08/08 06:24:26;;;;;;;3.20;2.30;;;;;;;15.93;100.00;99196.47;5109795;28;20236;-55
2023/08/08 06:26:53;;;;;;;2.57;2.10;;;;;;;16.00;100.00;99206.09;5109574;28;20202;-56
2023/08/08 06:29:19;;;;;;;2.87;2.20;;;;;;;16.06;100.00;99202.13;5109910;28;20221;-56
2023/08/08 06:31:46;;;;;;;3.67;2.53;;;;;;;16.11;100.00;99204.25;5109535;28;20209;-55
2023/08/08 06:34:15;;;;;;;4.23;2.40;;;;;;;16.17;100.00;99211.41;5109400;28;20238;-55
2023/08/08 06:36:42;;;;;;;2.93;2.10;;;;;;;16.15;100.00;99206.41;5109829;28;20205;-55
2023/08/08 06:39:11;;;;;;;4.17;2.10;;;;;;;16.20;100.00;99213.72;5109229;28;20202;-56
2023/08/08 06:41:38;;;;;;;3.33;2.23;;;;;;;16.20;100.00;99219.72;5109358;28;20623;-55
2023/08/08 06:44:05;;;;;;;3.20;2.30;;;;;;;16.34;100.00;99220.16;5109277;28;20587;-56
2023/08/08 06:46:32;;;;;;;3.23;2.30;;;;;;;16.42;100.00;99222.84;5109288;28;20472;-56
2023/08/08 06:48:59;;;;;;;3.70;2.17;;;;;;;16.51;100.00;99227.94;5108990;28;20689;-56
2023/08/08 06:51:28;;;;;;;2.60;2.20;;;;;;;16.65;100.00;99220.66;5109269;28;20287;-56
2023/08/08 06:53:55;;;;;;;3.47;2.10;;;;;;;16.76;100.00;99220.47;5108759;28;20201;-56
2023/08/08 06:56:22;;;;;;;6.97;4.80;;;;;;;16.82;100.00;99225.06;5108648;28;20201;-56
2023/08/08 06:58:48;;;;;;;5.33;3.20;;;;;;;16.96;100.00;99227.13;5109174;28;20227;-55
2023/08/08 07:01:15;;;;;;;22.20;10.60;;;;;;;17.02;100.00;99214.59;5108882;28;20262;-56
2023/08/08 07:03:43;;;;;;;9.90;5.63;;;;;;;17.04;100.00;99218.63;5108916;28;20213;-56
2023/08/08 07:06:10;;;;;;;8.40;5.63;;;;;;;17.20;100.00;99229.09;5108870;28;20233;-55
2023/08/08 07:08:39;;;;;;;3.27;2.33;;;;;;;17.25;100.00;99231.25;5108769;27;20221;-55
2023/08/08 07:11:07;;;;;;;2.60;2.20;;;;;;;17.29;100.00;99235.13;5109228;28;20202;-55
2023/08/08 07:13:33;;;;;;;3.23;2.00;;;;;;;17.48;100.00;99235.91;5108676;28;20198;-55
2023/08/08 07:16:00;;;;;;;3.10;2.00;;;;;;;17.79;100.00;99244.84;5108686;28;20566;-55
2023/08/08 07:18:27;;;;;;;2.57;2.10;;;;;;;18.13;100.00;99231.13;5109061;28;20616;-56
2023/08/08 07:20:56;;;;;;;3.33;2.30;;;;;;;18.39;100.00;99231.06;5108600;28;20572;-56
2023/08/08 07:23:23;;;;;;;2.73;1.90;;;;;;;18.72;100.00;99242.28;5108574;28;20215;-56
2023/08/08 07:25:51;;;;;;;2.87;2.13;;;;;;;18.96;100.00;99238.13;5108440;28;20226;-56
2023/08/08 07:28:18;;;;;;;3.27;2.30;;;;;;;19.20;100.00;99245.13;5108402;28;20599;-56
2023/08/08 07:30:45;;;;;;;2.30;1.90;;;;;;;19.37;100.00;99251.09;5108323;28;20208;-56
2023/08/08 07:33:13;;;;;;;2.90;2.10;;;;;;;19.43;100.00;99255.63;5108523;28;20193;-56
2023/08/08 07:35:40;;;;;;;2.30;1.90;;;;;;;19.38;100.00;99248.34;5108262;28;20193;-57
2023/08/08 07:38:07;;;;;;;2.20;2.00;;;;;;;19.69;100.00;99234.69;5107487;28;20692;-56
2023/08/08 07:40:34;;;;;;;2.10;1.90;;;;;;;20.02;100.00;99240.63;5107284;28;20209;-57
2023/08/08 07:43:02;;;;;;;2.70;2.03;;;;;;;20.42;99.60;99240.59;5108646;28;20210;-56
2023/08/08 07:45:29;;;;;;;2.10;1.90;;;;;;;20.91;100.00;99230.75;5108217;28;20969;-56
2023/08/08 07:47:56;;;;;;;5.30;1.50;;;;;;;21.06;91.63;99237.78;5108409;28;20208;-57
2023/08/08 07:50:22;;;;;;;2.17;1.40;;;;;;;21.21;91.01;99242.06;5108603;28;20209;-57
2023/08/08 07:52:49;;;;;;;2.57;1.70;;;;;;;21.63;92.13;99240.72;5108391;28;20204;-56
2023/08/08 07:55:16;;;;;;;1.80;1.70;;;;;;;22.12;94.71;99244.56;5108130;28;20229;-57
2023/08/08 07:57:43;;;;;;;1.77;1.60;;;;;;;22.38;90.28;99244.91;5108378;28;20200;-57
2023/08/08 08:00:12;;;;;;;1.73;1.60;;;;;;;22.53;87.08;99241.47;5108315;28;20578;-57
2023/08/08 08:02:39;;;;;;;1.50;1.25;;;;;;;22.33;82.28;99254.25;5108095;28;20604;-57
2023/08/08 08:05:07;;;;;;;1.73;1.50;;;;;;;22.33;81.16;99257.66;5107948;28;20235;-57
2023/08/08 08:07:35;;;;;;;1.52;1.40;;;;;;;22.57;83.73;99253.13;5112111;28;20197;-57
2023/08/08 08:10:02;;;;;;;1.50;1.40;;;;;;;22.94;81.15;99246.06;5112154;28;20689;-57
2023/08/08 08:12:30;;;;;;;1.63;1.52;;;;;;;23.17;77.99;99238.09;5112368;28;20193;-58
2023/08/08 08:14:57;;;;;;;1.50;1.33;;;;;;;23.18;75.65;99245.72;5112050;28;20204;-57
2023/08/08 08:17:27;;;;;;;2.88;1.30;;;;;;;23.22;78.89;99235.72;5112384;28;20202;-57
2023/08/08 08:19:54;;;;;;;2.72;1.35;;;;;;;23.22;74.14;99230.50;5112515;28;20202;-57
2023/08/08 08:22:22;;;;;;;1.92;1.42;;;;;;;23.48;78.15;99245.53;5112226;28;20205;-58
2023/08/08 08:24:48;;;;;;;2.72;1.60;;;;;;;23.76;80.14;99231.69;5111853;28;20233;-57
2023/08/08 08:27:15;;;;;;;1.40;1.30;;;;;;;24.06;77.99;99238.28;5111844;28;20194;-58
2023/08/08 08:29:42;;;;;;;1.20;1.10;;;;;;;24.29;75.21;99244.97;5112153;28;20201;-57
2023/08/08 08:32:09;;;;;;;1.30;1.20;;;;;;;24.18;69.56;99254.19;5111982;28;20212;-58
2023/08/08 08:34:39;;;;;;;1.63;1.15;;;;;;;24.13;69.80;99246.94;5111765;28;20201;-57
2023/08/08 08:37:06;;;;;;;1.27;1.00;;;;;;;23.97;66.92;99249.88;5111751;28;20201;-57
2023/08/08 08:39:32;;;;;;;1.17;1.00;;;;;;;23.81;64.99;99247.59;5111530;28;20204;-58
2023/08/08 08:42:04;;;;;;;1.10;1.00;;;;;;;23.80;67.97;99251.19;5111882;27;20202;-57
2023/08/08 08:44:32;;;;;;;1.20;1.02;;;;;;;24.16;70.40;99254.38;5111811;28;20236;-57
2023/08/08 08:47:00;;;;;;;1.70;1.00;;;;;;;24.13;65.48;99254.78;5111549;28;20202;-57
2023/08/08 08:49:30;;;;;;;1.05;0.90;;;;;;;24.12;64.54;99257.59;5111584;28;20258;-58
2023/08/08 08:52:00;;;;;;;0.80;0.80;;;;;;;24.21;65.95;99255.63;5111699;28;20190;-57
2023/08/08 08:54:30;;;;;;;0.73;0.60;;;;;;;24.17;62.92;99242.94;5111673;28;20197;-57
2023/08/08 08:56:57;;;;;;;1.02;0.80;;;;;;;24.23;61.65;99253.59;5111449;28;20256;-57
2023/08/08 08:59:25;;;;;;;0.77;0.70;;;;;;;24.36;62.88;99249.22;5111257;28;20205;-57
2023/08/08 09:01:52;;;;;;;0.85;0.85;;;;;;;24.18;59.96;99268.06;5111744;28;20208;-57
2023/08/08 09:04:21;;;;;;;0.70;0.70;;;;;;;24.10;59.26;99270.84;5111175;27;20634;-57
2023/08/08 09:06:48;;;;;;;0.88;0.75;;;;;;;24.45;66.42;99272.63;5111123;28;20233;-57
2023/08/08 09:09:17;;;;;;;1.80;0.90;;;;;;;24.71;64.04;99266.66;5111035;27;20293;-58
2023/08/08 09:11:45;;;;;;;0.65;0.65;;;;;;;24.56;60.63;99270.25;5111173;28;20218;-57
2023/08/08 09:14:19;;;;;;;0.88;0.88;;;;;;;24.49;62.14;99269.41;5111062;28;20433;-57
2023/08/08 09:16:47;;;;;;;0.82;0.82;;;;;;;24.56;60.90;99265.00;5111109;28;20213;-57
2023/08/08 09:19:14;;;;;;;2.03;1.05;;;;;;;24.90;62.94;99262.44;5110232;28;20323;-58
2023/08/08 09:21:40;;;;;;;1.02;0.95;;;;;;;25.32;65.97;99263.13;5111186;28;20204;-57
2023/08/08 09:24:08;;;;;;;1.73;0.90;;;;;;;25.32;62.34;99269.16;5110972;28;20208;-57
2023/08/08 09:26:36;;;;;;;1.33;0.80;;;;;;;25.55;61.71;99267.94;5110709;28;20225;-57
2023/08/08 09:29:04;;;;;;;1.10;1.00;;;;;;;25.34;57.87;99263.69;5110658;28;20212;-58
2023/08/08 09:31:32;;;;;;;1.20;1.00;;;;;;;25.39;63.33;99256.06;5110576;28;20221;-57
2023/08/08 09:33:59;;;;;;;1.00;0.95;;;;;;;25.39;57.81;99269.94;5110543;28;20248;-58
2023/08/08 09:36:26;;;;;;;1.00;0.90;;;;;;;25.27;57.56;99261.09;5110452;28;20198;-58
2023/08/08 09:38:54;;;;;;;0.80;0.80;;;;;;;24.94;55.37;99263.69;5110642;28;20292;-58
2023/08/08 09:41:21;;;;;;;1.10;1.00;;;;;;;24.77;58.55;99258.00;5110305;28;20266;-58
2023/08/08 09:43:50;;;;;;;1.02;0.93;;;;;;;24.92;56.84;99253.41;5110377;28;20242;-58
2023/08/08 09:46:19;;;;;;;0.80;0.80;;;;;;;25.16;60.34;99254.69;5110117;28;20248;-58
2023/08/08 09:48:47;;;;;;;0.75;0.75;;;;;;;25.22;55.49;99240.78;5110388;28;20669;-57
2023/08/08 09:51:15;;;;;;;1.65;0.75;;;;;;;24.90;55.68;99252.81;5110313;28;20294;-57
2023/08/08 09:53:44;;;;;;;1.77;0.90;;;;;;;25.25;57.95;99244.81;5110271;28;20201;-57
2023/08/08 09:56:11;;;;;;;0.88;0.80;;;;;;;25.33;56.08;99260.28;5110044;28;20201;-57
2023/08/08 09:58:37;;;;;;;0.80;0.70;;;;;;;25.27;59.42;99251.44;5110160;28;20212;-57
2023/08/08 10:01:07;;;;;;;0.60;0.60;;;;;;;25.69;58.46;99248.56;5110299;28;20197;-57
2023/08/08 10:03:37;;;;;;;1.10;1.00;;;;;;;25.73;56.42;99260.25;5109933;28;20205;-58
2023/08/08 10:06:05;;;;;;;1.10;0.93;;;;;;;25.58;54.28;99268.31;5109956;28;20237;-57
2023/08/08 10:08:32;;;;;;;0.70;0.70;;;;;;;25.55;53.85;99262.69;5110420;28;20296;-58
2023/08/08 10:10:59;;;;;;;0.70;0.70;;;;;;;25.78;56.49;99257.03;5110090;28;20227;-58
2023/08/08 10:13:27;;;;;;;0.70;0.70;;;;;;;25.87;55.62;99255.81;5110221;28;20208;-58
2023/08/08 10:15:55;;;;;;;0.98;0.88;;;;;;;26.00;54.04;99265.44;5109712;28;20197;-57
2023/08/08 10:18:24;;;;;;;0.70;0.70;;;;;;;25.81;53.47;99252.16;5109713;28;20584;-57
2023/08/08 10:20:53;;;;;;;0.80;0.80;;;;;;;26.04;56.11;99250.94;5109879;28;20208;-57
2023/08/08 10:23:20;;;;;;;0.90;0.82;;;;;;;25.88;52.21;99252.97;5109767;28;20211;-57
2023/08/08 10:25:49;;;;;;;0.80;0.80;;;;;;;26.13;54.40;99254.91;5109695;28;20237;-57
2023/08/08 10:28:18;;;;;;;0.60;0.60;;;;;;;26.27;53.90;99253.84;5109510;28;20266;-58
2023/08/08 10:30:46;;;;;;;0.70;0.70;;;;;;;26.40;52.22;99258.22;5110105;28;20677;-57
2023/08/08 10:33:17;;;;;;;0.60;0.60;;;;;;;26.17;51.19;99251.66;5109318;28;20202;-57
2023/08/08 10:35:55;;;;;;;0.63;0.63;;;;;;;26.19;53.16;99254.09;5109370;28;20670;-57
2023/08/08 10:38:24;;;;;;;0.73;0.73;;;;;;;26.36;52.81;99249.19;5109516;28;20200;-57
2023/08/08 10:40:57;;;;;;;0.60;0.60;;;;;;;26.55;58.37;99257.97;5109332;28;20456;-57
2023/08/08 10:43:27;;;;;;;0.70;0.70;;;;;;;26.58;54.00;99257.53;5109428;28;20201;-57
2023/08/08 10:45:53;;;;;;;0.65;0.60;;;;;;;26.49;49.80;99254.34;5109271;28;20231;-57
2023/08/08 10:48:20;;;;;;;0.90;0.80;;;;;;;26.70;54.98;99237.50;5109174;28;20198;-58
2023/08/08 10:50:47;;;;;;;0.77;0.77;;;;;;;26.79;51.14;99238.03;5109100;28;20491;-57
2023/08/08 10:53:16;;;;;;;3.63;0.98;;;;;;;26.57;52.33;99250.69;5108940;28;20201;-57
2023/08/08 10:55:44;;;;;;;0.70;0.70;;;;;;;26.98;53.73;99236.31;5108941;28;20712;-57
2023/08/08 10:58:15;;;;;;;0.60;0.60;;;;;;;27.28;52.41;99246.97;5108868;28;20198;-58
2023/08/08 11:00:42;;;;;;;2.25;0.68;;;;;;;27.21;48.78;99257.53;5109146;28;20189;-57
2023/08/08 11:03:09;;;;;;;0.80;0.75;;;;;;;26.70;48.54;99255.84;5108720;28;20221;-57
2023/08/08 11:05:39;;;;;;;0.70;0.70;;;;;;;26.87;49.07;99246.44;5108756;28;20293;-57
2023/08/08 11:08:08;;;;;;;0.80;0.73;;;;;;;26.98;48.94;99246.78;5109071;28;20280;-57
2023/08/08 11:10:38;;;;;;;1.02;0.80;;;;;;;27.36;52.91;99238.03;5108567;28;20201;-57
2023/08/08 11:13:07;;;;;;;0.60;0.60;;;;;;;27.47;49.25;99234.69;5108775;28;20202;-57
2023/08/08 11:15:34;;;;;;;0.80;0.80;;;;;;;27.18;48.42;99246.66;5108730;28;20201;-57
2023/08/08 11:18:03;;;;;;;1.15;0.70;;;;;;;27.13;48.10;99247.28;5108791;28;20203;-57
2023/08/08 11:20:32;;;;;;;2.22;0.85;;;;;;;27.16;50.43;99244.25;5108515;28;20666;-57
2023/08/08 11:23:00;;;;;;;0.70;0.70;;;;;;;27.25;49.26;99253.44;5108599;28;20209;-57
2023/08/08 11:25:28;;;;;;;0.90;0.80;;;;;;;27.37;49.33;99235.16;5108468;28;20631;-57
2023/08/08 11:27:57;;;;;;;0.73;0.73;;;;;;;27.41;48.79;99246.06;5108701;28;20287;-57